createdAt,value
2023-05-01T00:00:05.694Z,100.00
2023-05-01T00:02:07.549Z,100.00
2023-05-01T00:04:09.177Z,100.00
2023-05-01T00:06:11.240Z,100.00
2023-05-01T00:08:12.986Z,100.00
2023-05-01T00:10:14.604Z,100.00
2023-05-01T00:12:16.094Z,100.00
2023-05-01T00:14:17.533Z,100.00
2023-05-01T00:16:19.123Z,100.00
2023-05-01T00:18:20.750Z,100.00
2023-05-01T00:20:22.286Z,100.00
2023-05-01T00:22:23.879Z,100.00
2023-05-01T00:24:25.366Z,100.00
2023-05-01T00:26:26.838Z,100.00
2023-05-01T00:28:28.330Z,100.00
2023-05-01T00:30:29.898Z,100.00
2023-05-01T00:32:31.321Z,100.00
2023-05-01T00:34:32.914Z,100.00
2023-05-01T00:36:34.415Z,100.00
2023-05-01T00:38:35.805Z,100.00
2023-05-01T00:40:44.196Z,100.00
2023-05-01T00:42:45.659Z,100.00
2023-05-01T00:44:48.304Z,100.00
2023-05-01T00:46:50.085Z,100.00
2023-05-01T00:48:52.675Z,100.00
2023-05-01T00:50:54.210Z,100.00
2023-05-01T00:52:55.860Z,100.00
2023-05-01T00:54:58.983Z,100.00
2023-05-01T00:57:00.491Z,100.00
2023-05-01T00:59:02.050Z,100.00
2023-05-01T01:01:04.250Z,100.00
2023-05-01T01:03:05.843Z,100.00
2023-05-01T01:05:07.627Z,100.00
2023-05-01T01:08:09.761Z,100.00
2023-05-01T01:10:30.693Z,100.00
2023-05-01T01:12:39.318Z,100.00
2023-05-01T01:14:50.841Z,100.00
2023-05-01T01:17:00.317Z,100.00
2023-05-01T01:19:09.302Z,100.00
2023-05-01T01:21:35.249Z,100.00
2023-05-01T01:23:52.031Z,100.00
2023-05-01T01:26:30.716Z,100.00
2023-05-01T01:29:02.736Z,100.00
2023-05-01T01:31:32.571Z,100.00
2023-05-01T01:33:59.625Z,100.00
2023-05-01T01:36:08.189Z,100.00
2023-05-01T01:38:17.122Z,100.00
2023-05-01T01:40:29.030Z,100.00
2023-05-01T01:42:37.698Z,100.00
2023-05-01T01:44:43.321Z,100.00
2023-05-01T01:46:45.759Z,100.00
2023-05-01T01:48:50.363Z,100.00
2023-05-01T01:50:54.661Z,100.00
2023-05-01T01:52:58.893Z,100.00
2023-05-01T01:55:10.669Z,100.00
2023-05-01T01:57:14.433Z,100.00
2023-05-01T01:59:16.533Z,100.00
2023-05-01T02:01:19.388Z,100.00
2023-05-01T02:03:22.697Z,100.00
2023-05-01T02:05:26.239Z,100.00
2023-05-01T02:07:29.653Z,100.00
2023-05-01T02:09:31.730Z,100.00
2023-05-01T02:11:36.145Z,100.00
2023-05-01T02:13:39.106Z,100.00
2023-05-01T02:15:41.207Z,100.00
2023-05-01T02:17:42.934Z,100.00
2023-05-01T02:19:45.371Z,100.00
2023-05-01T02:21:48.446Z,100.00
2023-05-01T02:23:49.957Z,100.00
2023-05-01T02:25:53.554Z,100.00
2023-05-01T02:28:00.587Z,100.00
2023-05-01T02:30:01.990Z,100.00
2023-05-01T02:32:03.748Z,100.00
2023-05-01T02:34:05.347Z,100.00
2023-05-01T02:36:06.771Z,100.00
2023-05-01T02:38:08.359Z,100.00
2023-05-01T02:40:11.900Z,100.00
2023-05-01T02:42:17.673Z,100.00
2023-05-01T02:44:20.343Z,100.00
2023-05-01T02:46:25.226Z,100.00
2023-05-01T02:48:28.180Z,100.00
2023-05-01T02:50:30.102Z,100.00
2023-05-01T02:52:32.046Z,100.00
2023-05-01T02:54:34.190Z,100.00
2023-05-01T02:56:36.290Z,100.00
2023-05-01T02:58:38.262Z,100.00
2023-05-01T03:00:39.654Z,100.00
2023-05-01T03:02:41.467Z,100.00
2023-05-01T03:04:43.403Z,100.00
2023-05-01T03:06:45.036Z,100.00
2023-05-01T03:08:46.749Z,100.00
2023-05-01T03:10:48.432Z,100.00
2023-05-01T03:12:49.873Z,100.00
2023-05-01T03:14:51.353Z,100.00
2023-05-01T03:16:52.862Z,100.00
2023-05-01T03:18:54.319Z,100.00
2023-05-01T03:20:56.377Z,100.00
2023-05-01T03:22:57.922Z,100.00
2023-05-01T03:24:59.628Z,100.00
2023-05-01T03:27:01.187Z,100.00
2023-05-01T03:29:02.890Z,100.00
2023-05-01T03:31:04.489Z,100.00
2023-05-01T03:33:06.017Z,100.00
2023-05-01T03:35:08.199Z,100.00
2023-05-01T03:37:09.626Z,100.00
2023-05-01T03:39:11.172Z,100.00
2023-05-01T03:41:12.826Z,100.00
2023-05-01T03:43:14.296Z,100.00
2023-05-01T03:45:15.961Z,100.00
2023-05-01T03:47:17.518Z,100.00
2023-05-01T03:49:18.958Z,100.00
2023-05-01T03:51:20.548Z,100.00
2023-05-01T03:53:22.012Z,100.00
2023-05-01T03:55:23.448Z,100.00
2023-05-01T03:57:25.107Z,100.00
2023-05-01T03:59:26.683Z,100.00
2023-05-01T04:01:28.116Z,100.00
2023-05-01T04:03:29.809Z,100.00
2023-05-01T04:05:31.472Z,100.00
2023-05-01T04:07:32.913Z,100.00
2023-05-01T04:09:34.437Z,100.00
2023-05-01T04:11:36.034Z,100.00
2023-05-01T04:13:37.438Z,94.04
2023-05-01T04:15:39.154Z,90.28
2023-05-01T04:17:41.169Z,89.62
2023-05-01T04:19:42.581Z,86.18
2023-05-01T04:21:44.138Z,84.98
2023-05-01T04:23:45.598Z,85.24
2023-05-01T04:25:47.026Z,79.57
2023-05-01T04:27:48.626Z,78.88
2023-05-01T04:29:50.194Z,73.20
2023-05-01T04:31:51.629Z,72.34
2023-05-01T04:33:53.216Z,69.82
2023-05-01T04:35:54.803Z,70.12
2023-05-01T04:37:56.196Z,68.24
2023-05-01T04:39:58.052Z,65.11
2023-05-01T04:41:59.819Z,65.94
2023-05-01T04:44:01.218Z,64.24
2023-05-01T04:46:05.824Z,65.41
2023-05-01T04:48:07.608Z,61.79
2023-05-01T04:50:09.623Z,65.48
2023-05-01T04:52:11.135Z,64.13
2023-05-01T04:54:12.649Z,64.75
2023-05-01T04:56:14.088Z,63.46
2023-05-01T04:58:15.670Z,64.86
2023-05-01T05:00:17.354Z,63.77
2023-05-01T05:02:18.774Z,63.83
2023-05-01T05:04:20.366Z,63.48
2023-05-01T05:06:22.114Z,62.07
2023-05-01T05:08:23.559Z,61.30
2023-05-01T05:10:25.103Z,58.94
2023-05-01T05:12:26.577Z,60.03
2023-05-01T05:14:27.979Z,63.65
2023-05-01T05:16:29.528Z,61.49
2023-05-01T05:18:30.987Z,60.92
2023-05-01T05:20:32.413Z,61.71
2023-05-01T05:22:36.362Z,59.34
2023-05-01T05:24:38.062Z,57.86
2023-05-01T05:26:39.680Z,59.81
2023-05-01T05:28:41.202Z,58.83
2023-05-01T05:30:42.826Z,59.03
2023-05-01T05:32:44.299Z,57.61
2023-05-01T05:34:45.931Z,56.32
2023-05-01T05:36:47.420Z,55.89
2023-05-01T05:38:48.813Z,55.07
2023-05-01T05:40:50.356Z,55.56
2023-05-01T05:42:52.019Z,53.07
2023-05-01T05:44:53.408Z,51.01
2023-05-01T05:46:54.927Z,51.88
2023-05-01T05:48:56.493Z,49.10
2023-05-01T05:50:57.885Z,49.56
2023-05-01T05:52:59.515Z,48.50
2023-05-01T05:55:01.123Z,48.19
2023-05-01T05:57:02.886Z,48.34
2023-05-01T05:59:04.423Z,46.70
2023-05-01T06:01:05.961Z,47.83
2023-05-01T06:03:07.426Z,47.34
2023-05-01T06:05:09.396Z,45.32
2023-05-01T06:07:10.817Z,44.73
2023-05-01T06:09:12.207Z,42.71
2023-05-01T06:11:13.665Z,42.66
2023-05-01T06:13:15.196Z,41.70
2023-05-01T06:15:16.584Z,44.47
2023-05-01T06:17:18.203Z,44.05
2023-05-01T06:19:19.864Z,44.40
2023-05-01T06:21:21.290Z,42.83
2023-05-01T06:23:22.858Z,45.24
2023-05-01T06:25:24.452Z,42.68
2023-05-01T06:27:25.842Z,40.55
2023-05-01T06:29:27.336Z,41.43
2023-05-01T06:31:28.867Z,42.91
2023-05-01T06:33:30.309Z,44.35
2023-05-01T06:35:31.916Z,41.81
2023-05-01T06:37:33.423Z,41.28
2023-05-01T06:39:34.816Z,42.02
2023-05-01T06:41:36.351Z,42.12
2023-05-01T06:43:37.742Z,42.89
2023-05-01T06:45:39.160Z,41.45
2023-05-01T06:47:40.718Z,41.82
2023-05-01T06:49:42.482Z,41.27
2023-05-01T06:51:43.885Z,42.61
2023-05-01T06:53:45.421Z,41.92
2023-05-01T06:55:46.869Z,41.90
2023-05-01T06:57:48.288Z,39.39
2023-05-01T06:59:49.789Z,39.10
2023-05-01T07:01:51.279Z,38.17
2023-05-01T07:03:52.717Z,40.19
2023-05-01T07:05:55.000Z,39.21
2023-05-01T07:08:01.195Z,39.16
2023-05-01T07:10:03.456Z,39.55
2023-05-01T07:12:06.031Z,39.34
2023-05-01T07:14:07.501Z,39.46
2023-05-01T07:16:08.947Z,39.05
2023-05-01T07:18:10.693Z,38.16
2023-05-01T07:20:12.246Z,37.25
2023-05-01T07:22:13.746Z,38.06
2023-05-01T07:24:15.334Z,36.33
2023-05-01T07:26:16.798Z,36.03
2023-05-01T07:28:18.295Z,37.25
2023-05-01T07:30:19.952Z,38.32
2023-05-01T07:32:21.573Z,38.73
2023-05-01T07:34:23.059Z,38.65
2023-05-01T07:36:24.808Z,38.14
2023-05-01T07:38:26.368Z,38.43
2023-05-01T07:40:27.817Z,38.55
2023-05-01T07:42:29.506Z,39.18
2023-05-01T07:44:31.153Z,37.00
2023-05-01T07:46:32.681Z,37.06
2023-05-01T07:48:35.033Z,37.26
2023-05-01T07:50:36.532Z,35.83
2023-05-01T07:52:38.310Z,35.81
2023-05-01T07:54:39.879Z,36.71
2023-05-01T07:56:41.419Z,36.72
2023-05-01T07:58:42.853Z,37.02
2023-05-01T08:00:44.484Z,36.38
2023-05-01T08:02:46.223Z,36.71
2023-05-01T08:04:47.837Z,36.63
2023-05-01T08:06:50.714Z,38.56
2023-05-01T08:08:52.267Z,36.96
2023-05-01T08:10:54.486Z,36.50
2023-05-01T08:12:56.095Z,38.35
2023-05-01T08:14:57.669Z,37.41
2023-05-01T08:16:59.268Z,36.81
2023-05-01T08:19:00.829Z,37.83
2023-05-01T08:21:02.580Z,37.32
2023-05-01T08:23:04.127Z,38.15
2023-05-01T08:25:06.357Z,36.73
2023-05-01T08:27:07.843Z,37.02
2023-05-01T08:29:09.845Z,36.15
2023-05-01T08:31:11.542Z,36.17
2023-05-01T08:33:13.281Z,36.21
2023-05-01T08:35:14.859Z,36.89
2023-05-01T08:37:16.588Z,38.30
2023-05-01T08:39:18.125Z,35.99
2023-05-01T08:41:21.852Z,34.71
2023-05-01T08:43:27.266Z,34.70
2023-05-01T08:45:32.393Z,33.02
2023-05-01T08:47:37.022Z,32.83
2023-05-01T08:49:44.107Z,33.47
2023-05-01T08:51:46.808Z,31.79
2023-05-01T08:53:49.177Z,32.12
2023-05-01T08:55:51.989Z,35.45
2023-05-01T08:57:54.996Z,32.54
2023-05-01T08:59:58.239Z,32.06
2023-05-01T09:02:02.654Z,32.34
2023-05-01T09:04:06.655Z,32.21
2023-05-01T09:06:09.281Z,33.41
2023-05-01T09:08:10.851Z,31.55
2023-05-01T09:10:14.159Z,31.72
2023-05-01T09:12:24.477Z,33.69
2023-05-01T09:14:26.409Z,36.01
2023-05-01T09:16:29.383Z,33.14
2023-05-01T09:18:30.901Z,33.00
2023-05-01T09:20:32.775Z,33.00
2023-05-01T09:22:35.355Z,33.39
2023-05-01T09:24:37.075Z,34.15
2023-05-01T09:26:42.040Z,33.83
2023-05-01T09:28:45.402Z,32.68
2023-05-01T09:30:46.881Z,33.31
2023-05-01T09:33:13.949Z,34.02
2023-05-01T09:35:15.448Z,32.78
2023-05-01T09:37:26.059Z,34.69
2023-05-01T09:39:27.723Z,33.41
2023-05-01T09:41:29.658Z,31.92
2023-05-01T09:43:31.353Z,32.54
2023-05-01T09:45:33.223Z,31.43
2023-05-01T09:47:34.789Z,30.27
2023-05-01T09:49:46.764Z,30.53
2023-05-01T09:51:49.548Z,30.33
2023-05-01T09:53:51.649Z,29.31
2023-05-01T09:56:02.090Z,29.63
2023-05-01T09:58:03.919Z,29.69
2023-05-01T10:00:06.215Z,31.89
2023-05-01T10:02:07.634Z,32.92
2023-05-01T10:04:09.997Z,32.46
2023-05-01T10:06:11.722Z,32.13
2023-05-01T10:08:13.218Z,31.82
2023-05-01T10:10:19.094Z,31.34
2023-05-01T10:12:28.388Z,32.36
2023-05-01T10:14:29.819Z,32.13
2023-05-01T10:16:31.421Z,32.85
2023-05-01T10:18:36.125Z,33.52
2023-05-01T10:20:37.550Z,33.21
2023-05-01T10:22:42.584Z,34.30
2023-05-01T10:24:44.306Z,34.07
2023-05-01T10:26:48.652Z,33.35
2023-05-01T10:28:50.207Z,32.53
2023-05-01T10:30:52.604Z,33.61
2023-05-01T10:32:54.156Z,33.42
2023-05-01T10:35:00.572Z,34.79
2023-05-01T10:37:11.491Z,34.41
2023-05-01T10:39:36.075Z,34.62
2023-05-01T10:41:59.458Z,34.76
2023-05-01T10:44:30.185Z,33.93
2023-05-01T10:46:31.660Z,36.02
2023-05-01T10:48:39.163Z,34.77
2023-05-01T10:51:07.353Z,33.99
2023-05-01T10:53:11.782Z,35.16
2023-05-01T10:55:32.713Z,35.56
2023-05-01T10:57:45.021Z,35.60
2023-05-01T10:59:58.461Z,35.89
2023-05-01T11:02:00.289Z,35.02
2023-05-01T11:04:05.569Z,35.46
2023-05-01T11:06:07.501Z,34.34
2023-05-01T11:08:35.675Z,34.28
2023-05-01T11:10:37.069Z,34.15
2023-05-01T11:12:49.722Z,34.54
2023-05-01T11:14:54.457Z,34.31
2023-05-01T11:16:56.222Z,34.34
2023-05-01T11:18:57.733Z,34.67
2023-05-01T11:20:59.557Z,32.62
2023-05-01T11:23:00.958Z,33.78
2023-05-01T11:25:03.407Z,32.99
2023-05-01T11:27:06.083Z,31.51
2023-05-01T11:29:09.141Z,30.65
2023-05-01T11:31:10.592Z,31.42
2023-05-01T11:33:12.305Z,31.38
2023-05-01T11:35:21.240Z,31.47
2023-05-01T11:37:44.827Z,31.03
2023-05-01T11:39:52.605Z,31.19
2023-05-01T11:42:07.241Z,31.30
2023-05-01T11:44:11.291Z,31.19
2023-05-01T11:46:13.917Z,31.42
2023-05-01T11:48:15.536Z,29.13
2023-05-01T11:50:17.216Z,28.35
2023-05-01T11:52:18.885Z,28.40
2023-05-01T11:54:20.380Z,28.81
2023-05-01T11:56:26.472Z,27.63
2023-05-01T11:58:32.592Z,28.12
2023-05-01T12:00:34.824Z,28.86
2023-05-01T12:02:36.449Z,30.03
2023-05-01T12:04:38.153Z,31.05
2023-05-01T12:06:41.639Z,30.85
2023-05-01T12:08:47.323Z,31.18
2023-05-01T12:10:56.626Z,30.88
2023-05-01T12:12:58.510Z,29.84
2023-05-01T12:15:00.643Z,29.97
2023-05-01T12:17:02.448Z,29.96
2023-05-01T12:19:04.604Z,30.69
2023-05-01T12:21:14.745Z,30.09
2023-05-01T12:23:16.745Z,30.26
2023-05-01T12:25:18.616Z,30.90
2023-05-01T12:27:20.310Z,30.23
2023-05-01T12:29:22.666Z,30.80
2023-05-01T12:31:25.649Z,30.74
2023-05-01T12:33:27.326Z,31.43
2023-05-01T12:35:29.786Z,30.85
2023-05-01T12:37:32.355Z,29.54
2023-05-01T12:39:42.196Z,29.67
2023-05-01T12:41:49.139Z,29.80
2023-05-01T12:43:50.592Z,29.80
2023-05-01T12:45:53.301Z,30.83
2023-05-01T12:47:55.309Z,30.24
2023-05-01T12:50:03.177Z,29.94
2023-05-01T12:52:06.208Z,31.06
2023-05-01T12:54:07.862Z,29.21
2023-05-01T12:56:09.686Z,29.78
2023-05-01T12:58:11.180Z,31.03
2023-05-01T13:00:13.349Z,30.83
2023-05-01T13:02:17.546Z,30.62
2023-05-01T13:04:22.709Z,31.62
2023-05-01T13:06:32.489Z,29.53
2023-05-01T13:08:37.454Z,29.42
2023-05-01T13:10:39.457Z,29.95
2023-05-01T13:12:44.944Z,30.68
2023-05-01T13:14:46.406Z,30.13
2023-05-01T13:16:48.041Z,29.88
2023-05-01T13:18:51.898Z,28.88
2023-05-01T13:20:53.370Z,29.15
2023-05-01T13:22:54.807Z,29.55
2023-05-01T13:24:57.116Z,29.04
2023-05-01T13:26:58.520Z,30.73
2023-05-01T13:29:00.793Z,29.59
2023-05-01T13:31:02.550Z,29.92
2023-05-01T13:33:04.221Z,30.35
2023-05-01T13:35:07.999Z,29.90
2023-05-01T13:37:11.446Z,29.57
2023-05-01T13:39:21.016Z,29.78
2023-05-01T13:41:24.731Z,29.43
2023-05-01T13:43:26.405Z,31.32
2023-05-01T13:45:28.736Z,29.56
2023-05-01T13:47:30.204Z,29.92
2023-05-01T13:49:31.915Z,30.09
2023-05-01T13:51:33.609Z,30.55
2023-05-01T13:53:35.602Z,31.14
2023-05-01T13:55:40.099Z,31.17
2023-05-01T13:57:41.716Z,31.43
2023-05-01T13:59:46.088Z,32.17
2023-05-01T14:01:47.784Z,32.02
2023-05-01T14:03:49.917Z,31.34
2023-05-01T14:05:51.520Z,30.97
2023-05-01T14:07:58.580Z,30.45
2023-05-01T14:10:00.149Z,31.10
2023-05-01T14:12:01.679Z,32.34
2023-05-01T14:14:03.365Z,31.33
2023-05-01T14:16:08.247Z,31.54
2023-05-01T14:18:15.213Z,30.61
2023-05-01T14:20:16.968Z,30.23
2023-05-01T14:22:18.349Z,29.79
2023-05-01T14:24:19.730Z,31.03
2023-05-01T14:26:22.195Z,29.80
2023-05-01T14:28:23.596Z,29.77
2023-05-01T14:30:32.096Z,30.29
2023-05-01T14:32:40.247Z,29.59
2023-05-01T14:34:43.041Z,29.48
2023-05-01T14:36:44.496Z,29.84
2023-05-01T14:38:46.072Z,28.88
2023-05-01T14:40:48.272Z,30.04
2023-05-01T14:42:50.231Z,29.94
2023-05-01T14:44:51.704Z,30.44
2023-05-01T14:46:53.307Z,29.57
2023-05-01T14:48:54.783Z,29.18
2023-05-01T14:50:56.264Z,31.38
2023-05-01T14:52:59.360Z,29.46
2023-05-01T14:55:01.093Z,29.75
2023-05-01T14:57:02.727Z,29.01
2023-05-01T14:59:04.252Z,28.91
2023-05-01T15:01:05.761Z,28.89
2023-05-01T15:03:07.285Z,30.59
2023-05-01T15:05:09.150Z,28.98
2023-05-01T15:07:10.564Z,28.57
2023-05-01T15:09:11.961Z,29.28
2023-05-01T15:11:13.978Z,29.75
2023-05-01T15:13:15.430Z,28.83
2023-05-01T15:15:17.149Z,28.00
2023-05-01T15:17:18.653Z,27.44
2023-05-01T15:19:20.143Z,27.10
2023-05-01T15:21:21.782Z,27.79
2023-05-01T15:23:23.265Z,27.69
2023-05-01T15:25:24.696Z,29.24
2023-05-01T15:27:26.237Z,27.91
2023-05-01T15:29:27.838Z,28.51
2023-05-01T15:31:29.296Z,29.80
2023-05-01T15:33:30.881Z,28.43
2023-05-01T15:35:32.327Z,28.13
2023-05-01T15:37:33.720Z,29.23
2023-05-01T15:39:35.231Z,28.28
2023-05-01T15:41:36.872Z,27.98
2023-05-01T15:43:38.269Z,28.65
2023-05-01T15:45:39.842Z,29.15
2023-05-01T15:47:41.497Z,28.41
2023-05-01T15:49:43.036Z,28.58
2023-05-01T15:51:44.667Z,29.77
2023-05-01T15:53:46.330Z,28.71
2023-05-01T15:55:47.712Z,29.22
2023-05-01T15:57:49.258Z,29.25
2023-05-01T15:59:50.706Z,30.70
2023-05-01T16:01:53.873Z,30.57
2023-05-01T16:03:55.606Z,30.37
2023-05-01T16:05:57.372Z,29.89
2023-05-01T16:08:01.000Z,30.38
2023-05-01T16:10:02.574Z,29.72
2023-05-01T16:12:04.970Z,29.93
2023-05-01T16:14:10.034Z,30.04
2023-05-01T16:16:12.592Z,30.70
2023-05-01T16:18:19.188Z,29.60
2023-05-01T16:20:20.881Z,30.67
2023-05-01T16:22:22.450Z,30.19
2023-05-01T16:24:24.081Z,30.65
2023-05-01T16:26:28.319Z,30.24
2023-05-01T16:28:29.901Z,30.39
2023-05-01T16:30:31.396Z,31.69
2023-05-01T16:32:34.865Z,31.07
2023-05-01T16:34:38.453Z,31.01
2023-05-01T16:36:42.916Z,31.62
2023-05-01T16:38:44.986Z,31.97
2023-05-01T16:40:47.528Z,30.35
2023-05-01T16:42:52.567Z,30.86
2023-05-01T16:44:53.969Z,32.19
2023-05-01T16:47:00.195Z,31.35
2023-05-01T16:49:01.606Z,32.24
2023-05-01T16:51:06.077Z,32.29
2023-05-01T16:53:07.504Z,32.53
2023-05-01T16:55:09.133Z,31.69
2023-05-01T16:57:10.536Z,31.43
2023-05-01T16:59:11.934Z,32.23
2023-05-01T17:01:13.451Z,33.33
2023-05-01T17:03:15.076Z,32.21
2023-05-01T17:05:16.716Z,32.37
2023-05-01T17:07:18.108Z,32.92
2023-05-01T17:09:19.545Z,32.63
2023-05-01T17:11:21.487Z,32.46
2023-05-01T17:13:23.039Z,32.59
2023-05-01T17:15:24.454Z,33.38
2023-05-01T17:17:26.015Z,32.61
2023-05-01T17:19:27.555Z,32.62
2023-05-01T17:21:28.984Z,33.11
2023-05-01T17:23:30.553Z,33.94
2023-05-01T17:25:32.485Z,34.59
2023-05-01T17:27:33.881Z,34.91
2023-05-01T17:29:35.474Z,34.85
2023-05-01T17:31:37.082Z,36.29
2023-05-01T17:33:38.559Z,37.25
2023-05-01T17:35:40.134Z,35.03
2023-05-01T17:37:41.862Z,35.95
2023-05-01T17:39:43.266Z,35.69
2023-05-01T17:41:44.885Z,36.83
2023-05-01T17:43:46.307Z,36.01
2023-05-01T17:45:48.046Z,36.64
2023-05-01T17:47:49.772Z,37.38
2023-05-01T17:49:51.208Z,37.66
2023-05-01T17:51:52.591Z,37.91
2023-05-01T17:53:53.991Z,38.19
2023-05-01T17:55:55.399Z,39.11
2023-05-01T17:57:56.786Z,39.25
2023-05-01T17:59:59.159Z,38.94
2023-05-01T18:02:00.840Z,39.02
2023-05-01T18:04:02.399Z,39.81
2023-05-01T18:06:04.154Z,41.15
2023-05-01T18:08:05.619Z,40.62
2023-05-01T18:10:07.813Z,41.29
2023-05-01T18:12:09.307Z,40.87
2023-05-01T18:14:10.706Z,41.39
2023-05-01T18:16:12.132Z,41.95
2023-05-01T18:18:13.932Z,42.51
2023-05-01T18:20:15.549Z,42.84
2023-05-01T18:22:17.120Z,43.71
2023-05-01T18:24:18.602Z,45.03
2023-05-01T18:26:20.011Z,44.44
2023-05-01T18:28:21.871Z,43.78
2023-05-01T18:30:23.343Z,46.23
2023-05-01T18:32:32.970Z,45.96
2023-05-01T18:34:41.027Z,47.48
2023-05-01T18:36:42.588Z,47.96
2023-05-01T18:38:44.136Z,49.49
2023-05-01T18:40:45.531Z,47.75
2023-05-01T18:42:47.059Z,48.89
2023-05-01T18:44:48.672Z,48.79
2023-05-01T18:46:50.150Z,48.76
2023-05-01T18:48:51.907Z,49.57
2023-05-01T18:51:07.145Z,49.64
2023-05-01T18:53:09.651Z,49.36
2023-05-01T18:55:11.347Z,49.67
2023-05-01T18:57:13.060Z,52.18
2023-05-01T18:59:14.533Z,51.98
2023-05-01T19:01:16.254Z,52.66
2023-05-01T19:03:17.911Z,53.63
2023-05-01T19:05:19.659Z,53.83
2023-05-01T19:07:21.225Z,55.05
2023-05-01T19:09:22.631Z,55.63
2023-05-01T19:11:24.074Z,57.07
2023-05-01T19:13:25.487Z,60.54
2023-05-01T19:15:27.034Z,59.56
2023-05-01T19:17:28.483Z,58.33
2023-05-01T19:19:30.012Z,61.35
2023-05-01T19:21:31.623Z,62.11
2023-05-01T19:23:33.085Z,61.44
2023-05-01T19:25:34.491Z,61.72
2023-05-01T19:27:35.875Z,61.16
2023-05-01T19:29:37.290Z,60.00
2023-05-01T19:31:38.853Z,62.29
2023-05-01T19:33:41.116Z,62.96
2023-05-01T19:35:43.097Z,61.57
2023-05-01T19:37:44.603Z,63.16
2023-05-01T19:39:46.127Z,62.84
2023-05-01T19:41:47.590Z,62.43
2023-05-01T19:43:49.233Z,61.67
2023-05-01T19:45:50.765Z,61.67
2023-05-01T19:47:52.410Z,61.55
2023-05-01T19:49:54.048Z,61.94
2023-05-01T19:51:55.451Z,62.22
2023-05-01T19:53:56.886Z,61.22
2023-05-01T19:55:58.396Z,61.61
2023-05-01T19:58:00.067Z,61.59
2023-05-01T20:00:01.745Z,61.54
2023-05-01T20:02:04.047Z,61.54
2023-05-01T20:04:05.683Z,61.85
2023-05-01T20:06:07.139Z,62.32
2023-05-01T20:08:08.569Z,62.28
2023-05-01T20:10:10.330Z,63.46
2023-05-01T20:12:11.761Z,62.77
2023-05-01T20:14:13.383Z,62.82
2023-05-01T20:16:14.957Z,62.44
2023-05-01T20:18:16.399Z,62.45
2023-05-01T20:20:18.080Z,63.44
2023-05-01T20:22:19.539Z,63.48
2023-05-01T20:24:20.920Z,63.83
2023-05-01T20:26:22.409Z,63.44
2023-05-01T20:28:24.345Z,63.92
2023-05-01T20:30:25.772Z,65.91
2023-05-01T20:32:27.307Z,66.35
2023-05-01T20:34:28.909Z,67.20
2023-05-01T20:36:30.320Z,68.87
2023-05-01T20:38:31.989Z,69.14
2023-05-01T20:40:33.550Z,71.44
2023-05-01T20:42:34.963Z,71.86
2023-05-01T20:44:36.454Z,72.81
2023-05-01T20:46:38.023Z,71.76
2023-05-01T20:48:39.444Z,70.88
2023-05-01T20:50:40.936Z,70.46
2023-05-01T20:52:42.509Z,69.88
2023-05-01T20:54:43.898Z,69.22
2023-05-01T20:56:45.388Z,69.73
2023-05-01T20:58:46.936Z,69.89
2023-05-01T21:00:48.322Z,69.24
2023-05-01T21:02:49.907Z,69.65
2023-05-01T21:04:51.567Z,69.41
2023-05-01T21:06:53.028Z,68.63
2023-05-01T21:08:54.696Z,69.45
2023-05-01T21:10:56.453Z,68.29
2023-05-01T21:12:57.974Z,68.11
2023-05-01T21:14:59.397Z,68.24
2023-05-01T21:17:01.055Z,67.98
2023-05-01T21:19:02.513Z,68.63
2023-05-01T21:21:04.078Z,68.45
2023-05-01T21:23:05.664Z,69.21
2023-05-01T21:25:08.357Z,68.17
2023-05-01T21:27:09.794Z,68.09
2023-05-01T21:29:11.650Z,68.06
2023-05-01T21:31:13.505Z,68.66
2023-05-01T21:33:15.952Z,68.79
2023-05-01T21:35:20.602Z,68.51
2023-05-01T21:37:22.229Z,67.92
2023-05-01T21:39:24.275Z,68.11
2023-05-01T21:41:26.059Z,68.74
2023-05-01T21:43:27.609Z,68.18
2023-05-01T21:45:29.077Z,67.67
2023-05-01T21:47:36.322Z,66.91
2023-05-01T21:49:39.500Z,67.41
2023-05-01T21:51:40.950Z,66.69
2023-05-01T21:53:42.439Z,66.64
2023-05-01T21:55:45.792Z,66.80
2023-05-01T21:57:47.302Z,66.13
2023-05-01T21:59:48.876Z,65.85
2023-05-01T22:01:50.281Z,66.66
2023-05-01T22:03:51.786Z,65.84
2023-05-01T22:05:55.222Z,66.83
2023-05-01T22:07:56.768Z,65.60
2023-05-01T22:09:58.372Z,65.65
2023-05-01T22:12:00.123Z,66.27
2023-05-01T22:14:01.580Z,65.75
2023-05-01T22:16:03.067Z,65.87
2023-05-01T22:18:04.614Z,65.67
2023-05-01T22:20:08.360Z,65.62
2023-05-01T22:22:09.832Z,65.89
2023-05-01T22:24:11.380Z,64.79
2023-05-01T22:26:12.852Z,65.01
2023-05-01T22:28:15.942Z,65.28
2023-05-01T22:30:19.231Z,65.43
2023-05-01T22:32:20.674Z,65.10
2023-05-01T22:34:22.453Z,65.38
2023-05-01T22:36:23.987Z,64.91
2023-05-01T22:38:25.377Z,65.92
2023-05-01T22:40:26.886Z,64.89
2023-05-01T22:42:28.454Z,65.22
2023-05-01T22:44:29.962Z,65.30
2023-05-01T22:46:31.543Z,64.80
2023-05-01T22:48:33.093Z,64.59
2023-05-01T22:50:34.488Z,65.10
2023-05-01T22:52:36.064Z,66.04
2023-05-01T22:54:37.748Z,64.40
2023-05-01T22:56:39.130Z,64.63
2023-05-01T22:58:40.711Z,64.70
2023-05-01T23:00:42.276Z,64.78
2023-05-01T23:02:43.858Z,65.57
2023-05-01T23:04:45.557Z,64.93
2023-05-01T23:06:47.359Z,65.11
2023-05-01T23:08:51.846Z,65.19
2023-05-01T23:10:53.343Z,65.56
2023-05-01T23:12:54.813Z,65.68
2023-05-01T23:14:56.221Z,65.67
2023-05-01T23:16:57.774Z,66.47
2023-05-01T23:18:59.243Z,66.77
2023-05-01T23:21:00.644Z,67.01
2023-05-01T23:23:02.232Z,67.22
2023-05-01T23:25:05.632Z,67.71
2023-05-01T23:27:07.894Z,68.49
2023-05-01T23:29:09.576Z,68.55
2023-05-01T23:31:17.977Z,68.84
2023-05-01T23:33:21.444Z,68.38
2023-05-01T23:35:23.187Z,69.86
2023-05-01T23:37:24.763Z,69.64
2023-05-01T23:39:26.179Z,69.50
2023-05-01T23:41:28.296Z,69.74
2023-05-01T23:43:30.196Z,69.50
2023-05-01T23:45:31.787Z,70.13
2023-05-01T23:47:33.839Z,70.08
2023-05-01T23:49:35.424Z,70.46
2023-05-01T23:51:37.089Z,69.95
2023-05-01T23:53:38.640Z,70.34
2023-05-01T23:55:40.241Z,70.40
2023-05-01T23:57:41.644Z,70.51
2023-05-01T23:59:43.213Z,70.67
